createdAt,value
2023-05-25T00:01:55.403Z,11.55
2023-05-25T00:04:27.904Z,10.07
2023-05-25T00:06:56.372Z,10.07
2023-05-25T00:09:26.297Z,11.50
2023-05-25T00:11:54.619Z,8.52
2023-05-25T00:14:24.486Z,10.50
2023-05-25T00:16:54.629Z,9.18
2023-05-25T00:19:23.066Z,6.65
2023-05-25T00:21:52.029Z,6.13
2023-05-25T00:24:20.336Z,10.25
2023-05-25T00:26:48.725Z,5.80
2023-05-25T00:29:17.221Z,10.25
2023-05-25T00:31:45.467Z,7.18
2023-05-25T00:34:13.722Z,8.45
2023-05-25T00:36:44.060Z,5.65
2023-05-25T00:39:12.364Z,5.68
2023-05-25T00:41:45.163Z,9.23
2023-05-25T00:44:22.310Z,8.30
2023-05-25T00:46:53.210Z,8.50
2023-05-25T00:49:26.060Z,7.70
2023-05-25T00:51:54.620Z,4.32
2023-05-25T00:54:23.379Z,9.52
2023-05-25T00:56:58.721Z,7.32
2023-05-25T00:59:37.863Z,7.68
2023-05-25T01:02:09.264Z,8.30
2023-05-25T01:05:01.846Z,6.07
2023-05-25T01:07:33.443Z,5.68
2023-05-25T01:10:06.149Z,6.85
2023-05-25T01:12:39.275Z,7.97
2023-05-25T01:15:08.136Z,7.00
2023-05-25T01:17:38.968Z,7.18
2023-05-25T01:20:12.136Z,7.65
2023-05-25T01:23:13.010Z,9.02
2023-05-25T01:25:46.918Z,6.63
2023-05-25T01:28:29.455Z,7.15
2023-05-25T01:30:58.537Z,6.72
2023-05-25T01:33:29.830Z,5.68
2023-05-25T01:35:59.070Z,5.40
2023-05-25T01:38:27.725Z,7.88
2023-05-25T01:40:56.052Z,8.85
2023-05-25T01:43:24.567Z,8.43
2023-05-25T01:45:59.293Z,8.50
2023-05-25T01:48:38.430Z,7.43
2023-05-25T01:51:17.261Z,5.10
2023-05-25T01:53:52.151Z,6.53
2023-05-25T01:56:24.085Z,8.38
2023-05-25T01:58:52.872Z,9.70
2023-05-25T02:01:23.819Z,7.00
2023-05-25T02:03:53.542Z,7.60
2023-05-25T02:06:22.021Z,8.93
2023-05-25T02:08:50.439Z,7.80
2023-05-25T02:11:18.771Z,8.05
2023-05-25T02:13:47.178Z,9.30
2023-05-25T02:16:15.506Z,6.20
2023-05-25T02:18:45.477Z,3.67
2023-05-25T02:21:13.959Z,6.60
2023-05-25T02:23:42.602Z,6.72
2023-05-25T02:26:10.882Z,7.95
2023-05-25T02:28:39.177Z,6.80
2023-05-25T02:31:07.481Z,7.78
2023-05-25T02:33:35.750Z,8.10
2023-05-25T02:36:04.192Z,6.30
2023-05-25T02:38:32.504Z,8.40
2023-05-25T02:41:00.736Z,5.72
2023-05-25T02:43:28.975Z,5.70
2023-05-25T02:45:57.230Z,8.95
2023-05-25T02:48:25.726Z,9.02
2023-05-25T02:50:54.042Z,7.47
2023-05-25T02:53:22.308Z,5.78
2023-05-25T02:55:50.553Z,8.57
2023-05-25T02:58:18.797Z,8.05
2023-05-25T03:00:47.714Z,8.48
2023-05-25T03:03:16.113Z,7.95
2023-05-25T03:05:44.508Z,6.32
2023-05-25T03:08:12.963Z,6.07
2023-05-25T03:10:41.225Z,4.63
2023-05-25T03:13:09.482Z,7.22
2023-05-25T03:15:37.726Z,6.47
2023-05-25T03:18:06.400Z,6.22
2023-05-25T03:20:35.534Z,7.97
2023-05-25T03:23:04.235Z,6.78
2023-05-25T03:25:32.603Z,5.85
2023-05-25T03:28:00.897Z,7.70
2023-05-25T03:30:29.176Z,5.10
2023-05-25T03:32:57.465Z,6.40
2023-05-25T03:35:26.091Z,6.25
2023-05-25T03:37:54.384Z,6.38
2023-05-25T03:40:22.669Z,9.63
2023-05-25T03:42:51.226Z,6.07
2023-05-25T03:45:19.529Z,8.65
2023-05-25T03:47:48.890Z,6.57
2023-05-25T03:50:17.321Z,6.72
2023-05-25T03:52:45.585Z,5.80
2023-05-25T03:55:16.114Z,9.00
2023-05-25T03:57:44.399Z,6.57
2023-05-25T04:00:13.354Z,5.15
2023-05-25T04:02:42.044Z,5.00
2023-05-25T04:05:10.768Z,5.22
2023-05-25T04:07:39.053Z,6.40
2023-05-25T04:10:08.123Z,6.03
2023-05-25T04:12:37.146Z,7.13
2023-05-25T04:15:06.493Z,8.10
2023-05-25T04:17:36.870Z,5.22
2023-05-25T04:20:09.813Z,5.35
2023-05-25T04:22:40.663Z,7.65
2023-05-25T04:25:09.310Z,8.40
2023-05-25T04:27:37.677Z,7.47
2023-05-25T04:30:06.495Z,7.72
2023-05-25T04:32:38.121Z,4.90
2023-05-25T04:35:07.235Z,5.88
2023-05-25T04:37:37.906Z,5.82
2023-05-25T04:40:14.894Z,6.00
2023-05-25T04:42:43.525Z,6.07
2023-05-25T04:45:12.100Z,10.10
2023-05-25T04:47:41.882Z,7.25
2023-05-25T04:50:11.874Z,8.55
2023-05-25T04:52:40.196Z,10.45
2023-05-25T04:55:08.897Z,8.57
2023-05-25T04:57:37.169Z,5.40
2023-05-25T05:00:06.961Z,6.78
2023-05-25T05:02:35.405Z,8.80
2023-05-25T05:05:03.658Z,6.90
2023-05-25T05:07:32.556Z,6.78
2023-05-25T05:10:00.873Z,6.82
2023-05-25T05:12:29.137Z,8.70
2023-05-25T05:14:57.534Z,6.25
2023-05-25T05:17:27.468Z,7.75
2023-05-25T05:19:55.704Z,8.80
2023-05-25T05:22:23.989Z,8.80
2023-05-25T05:24:52.273Z,8.00
2023-05-25T05:27:20.772Z,6.60
2023-05-25T05:29:49.093Z,7.15
2023-05-25T05:32:17.352Z,5.97
2023-05-25T05:34:45.573Z,6.80
2023-05-25T05:37:13.865Z,8.32
2023-05-25T05:39:42.219Z,5.20
2023-05-25T05:42:10.425Z,8.88
2023-05-25T05:44:38.636Z,4.50
2023-05-25T05:47:07.325Z,8.15
2023-05-25T05:49:35.696Z,5.97
2023-05-25T05:52:05.515Z,7.45
2023-05-25T05:54:33.820Z,4.78
2023-05-25T05:57:02.645Z,6.07
2023-05-25T05:59:30.917Z,7.30
2023-05-25T06:01:59.281Z,4.70
2023-05-25T06:04:29.595Z,3.80
2023-05-25T06:06:57.931Z,6.88
2023-05-25T06:09:27.512Z,6.43
2023-05-25T06:11:55.804Z,6.43
2023-05-25T06:14:25.155Z,6.45
2023-05-25T06:16:54.420Z,5.82
2023-05-25T06:19:22.682Z,6.25
2023-05-25T06:21:50.882Z,6.88
2023-05-25T06:24:19.141Z,7.43
2023-05-25T06:26:47.405Z,6.95
2023-05-25T06:29:17.158Z,6.38
2023-05-25T06:31:45.755Z,6.60
2023-05-25T06:34:14.110Z,5.90
2023-05-25T06:36:42.596Z,6.50
2023-05-25T06:39:11.045Z,5.93
2023-05-25T06:41:41.882Z,5.95
2023-05-25T06:44:10.271Z,5.88
2023-05-25T06:46:40.065Z,6.82
2023-05-25T06:49:08.491Z,10.50
2023-05-25T06:51:36.713Z,9.77
2023-05-25T06:54:05.092Z,6.07
2023-05-25T06:56:33.366Z,6.43
2023-05-25T06:59:01.589Z,6.55
2023-05-25T07:01:29.885Z,5.28
2023-05-25T07:03:58.142Z,7.05
2023-05-25T07:06:27.010Z,6.65
2023-05-25T07:08:56.595Z,6.55
2023-05-25T07:11:24.815Z,7.32
2023-05-25T07:13:53.085Z,6.30
2023-05-25T07:16:21.347Z,9.00
2023-05-25T07:18:49.624Z,6.78
2023-05-25T07:21:18.264Z,6.75
2023-05-25T07:23:46.480Z,9.25
2023-05-25T07:26:15.379Z,7.32
2023-05-25T07:28:43.824Z,6.57
2023-05-25T07:31:12.820Z,9.38
2023-05-25T07:33:41.053Z,6.32
2023-05-25T07:36:10.743Z,8.88
2023-05-25T07:38:39.024Z,7.55
2023-05-25T07:41:07.370Z,8.20
2023-05-25T07:43:35.616Z,9.52
2023-05-25T07:46:03.877Z,8.52
2023-05-25T07:48:32.092Z,8.43
2023-05-25T07:51:00.696Z,5.18
2023-05-25T07:53:28.970Z,9.02
2023-05-25T07:55:57.156Z,9.18
2023-05-25T07:58:25.692Z,5.50
2023-05-25T08:00:53.923Z,6.22
2023-05-25T08:03:31.828Z,7.60
2023-05-25T08:06:04.295Z,6.65
2023-05-25T08:08:32.507Z,6.70
2023-05-25T08:11:00.840Z,6.72
2023-05-25T08:13:29.095Z,6.88
2023-05-25T08:15:57.348Z,7.93
2023-05-25T08:18:25.948Z,6.10
2023-05-25T08:20:54.150Z,5.65
2023-05-25T08:23:22.850Z,5.00
2023-05-25T08:25:51.992Z,8.07
2023-05-25T08:28:21.602Z,4.93
2023-05-25T08:30:49.957Z,6.22
2023-05-25T08:33:18.292Z,4.38
2023-05-25T08:35:46.809Z,6.88
2023-05-25T08:38:15.207Z,4.70
2023-05-25T08:40:44.767Z,6.65
2023-05-25T08:43:13.066Z,8.52
2023-05-25T08:45:45.330Z,6.00
2023-05-25T08:50:53.445Z,5.90
2023-05-25T08:53:23.699Z,5.57
2023-05-25T08:55:54.204Z,5.13
2023-05-25T08:58:32.100Z,5.38
2023-05-25T09:01:05.343Z,7.72
2023-05-25T09:03:36.101Z,6.85
2023-05-25T09:06:04.703Z,6.57
2023-05-25T09:08:33.537Z,7.25
2023-05-25T09:11:03.137Z,7.88
2023-05-25T09:13:31.719Z,6.78
2023-05-25T09:16:00.656Z,5.93
2023-05-25T09:18:29.151Z,6.53
2023-05-25T09:20:57.858Z,5.78
2023-05-25T09:23:26.524Z,6.90
2023-05-25T09:25:55.583Z,7.13
2023-05-25T09:28:27.446Z,6.25
2023-05-25T09:30:57.220Z,4.72
2023-05-25T09:33:25.708Z,4.80
2023-05-25T09:35:54.387Z,5.97
2023-05-25T09:38:23.502Z,6.88
2023-05-25T09:40:52.652Z,6.47
2023-05-25T09:43:36.544Z,6.28
2023-05-25T09:46:09.233Z,5.28
2023-05-25T09:48:37.880Z,5.97
2023-05-25T09:51:09.583Z,6.90
2023-05-25T09:53:38.504Z,4.93
2023-05-25T09:56:07.266Z,4.18
2023-05-25T09:58:35.503Z,5.88
2023-05-25T10:01:05.393Z,10.23
2023-05-25T10:03:34.007Z,4.40
2023-05-25T10:06:02.967Z,4.95
2023-05-25T10:08:31.778Z,4.57
2023-05-25T10:11:00.545Z,4.60
2023-05-25T10:13:30.908Z,5.93
2023-05-25T10:16:00.205Z,4.43
2023-05-25T10:18:33.953Z,4.47
2023-05-25T10:21:07.793Z,3.90
2023-05-25T10:23:45.627Z,2.72
2023-05-25T10:26:17.974Z,4.18
2023-05-25T10:28:47.291Z,5.22
2023-05-25T10:31:17.708Z,4.78
2023-05-25T10:33:50.703Z,4.75
2023-05-25T10:36:22.473Z,2.65
2023-05-25T10:38:53.180Z,3.25
2023-05-25T10:41:22.523Z,3.28
2023-05-25T10:43:54.168Z,4.45
2023-05-25T10:46:23.372Z,4.38
2023-05-25T10:49:01.456Z,3.35
2023-05-25T10:51:40.377Z,2.80
2023-05-25T10:54:08.832Z,4.47
2023-05-25T10:56:37.272Z,2.90
2023-05-25T10:59:05.613Z,4.60
2023-05-25T11:01:37.359Z,3.20
2023-05-25T11:04:18.102Z,4.70
2023-05-25T11:06:49.287Z,4.93
2023-05-25T11:09:27.687Z,4.18
2023-05-25T11:12:00.649Z,5.45
2023-05-25T11:14:30.692Z,4.35
2023-05-25T11:17:15.706Z,4.65
2023-05-25T11:19:51.561Z,5.63
2023-05-25T11:22:25.296Z,4.55
2023-05-25T11:24:54.997Z,5.03
2023-05-25T11:27:29.076Z,5.22
2023-05-25T11:29:58.604Z,3.75
2023-05-25T11:32:30.095Z,3.75
2023-05-25T11:34:59.886Z,3.72
2023-05-25T11:37:32.198Z,4.18
2023-05-25T11:40:00.463Z,5.00
2023-05-25T11:42:30.249Z,4.80
2023-05-25T11:45:03.613Z,2.95
2023-05-25T11:47:33.170Z,8.25
2023-05-25T11:50:02.354Z,4.40
2023-05-25T11:52:30.619Z,4.15
2023-05-25T11:54:58.997Z,3.45
2023-05-25T11:57:27.516Z,4.28
2023-05-25T11:59:58.635Z,2.55
2023-05-25T12:02:27.651Z,2.85
2023-05-25T12:04:56.855Z,3.20
2023-05-25T12:07:32.148Z,4.32
2023-05-25T12:10:11.503Z,4.28
2023-05-25T12:12:45.210Z,3.03
2023-05-25T12:15:24.419Z,2.97
2023-05-25T12:17:54.663Z,2.25
2023-05-25T12:20:23.515Z,1.98
2023-05-25T12:22:52.111Z,2.17
2023-05-25T12:25:22.616Z,2.75
2023-05-25T12:28:10.657Z,1.90
2023-05-25T12:30:39.068Z,3.47
2023-05-25T12:33:07.570Z,1.65
2023-05-25T12:35:50.402Z,2.60
2023-05-25T12:38:20.465Z,2.78
2023-05-25T12:40:48.852Z,3.38
2023-05-25T12:43:18.297Z,2.38
2023-05-25T12:45:46.675Z,4.65
2023-05-25T12:48:15.027Z,3.65
2023-05-25T12:50:59.119Z,4.28
2023-05-25T12:53:28.853Z,7.83
2023-05-25T12:56:04.678Z,3.78
2023-05-25T12:58:33.014Z,5.65
2023-05-25T13:01:01.381Z,3.13
2023-05-25T13:03:29.738Z,4.07
2023-05-25T13:06:03.207Z,3.72
2023-05-25T13:08:31.542Z,6.70
2023-05-25T13:11:00.774Z,4.35
2023-05-25T13:13:29.067Z,3.28
2023-05-25T13:15:58.969Z,3.38
2023-05-25T13:18:27.525Z,4.82
2023-05-25T13:20:57.116Z,4.18
2023-05-25T13:23:26.878Z,4.05
2023-05-25T13:25:55.096Z,3.22
2023-05-25T13:28:23.482Z,3.50
2023-05-25T13:30:51.782Z,3.15
2023-05-25T13:33:20.056Z,5.45
2023-05-25T13:36:10.559Z,3.85
2023-05-25T13:38:39.200Z,3.58
2023-05-25T13:41:07.452Z,4.30
2023-05-25T13:43:35.829Z,4.32
2023-05-25T13:46:04.272Z,4.70
2023-05-25T13:48:32.569Z,3.35
2023-05-25T13:51:01.119Z,5.85
2023-05-25T13:53:29.366Z,5.00
2023-05-25T13:55:57.602Z,2.80
2023-05-25T13:58:26.068Z,3.50
2023-05-25T14:00:54.312Z,3.80
2023-05-25T14:03:22.747Z,4.55
2023-05-25T14:05:51.750Z,3.63
2023-05-25T14:08:20.031Z,4.20
2023-05-25T14:10:48.263Z,4.38
2023-05-25T14:13:16.595Z,5.10
2023-05-25T14:15:45.876Z,4.93
2023-05-25T14:18:14.433Z,4.47
2023-05-25T14:20:43.552Z,2.83
2023-05-25T14:23:14.263Z,2.95
2023-05-25T14:25:44.290Z,2.67
2023-05-25T14:28:12.732Z,3.88
2023-05-25T14:30:41.008Z,2.85
2023-05-25T14:33:14.773Z,2.05
2023-05-25T14:35:43.734Z,2.08
2023-05-25T14:38:12.240Z,3.53
2023-05-25T14:40:40.525Z,1.83
2023-05-25T14:43:08.806Z,0.85
2023-05-25T14:45:37.028Z,2.55
2023-05-25T14:48:15.932Z,1.58
2023-05-25T14:50:45.972Z,2.08
2023-05-25T14:53:14.863Z,0.77
2023-05-25T14:55:43.705Z,1.83
2023-05-25T14:58:12.768Z,1.17
2023-05-25T15:00:40.981Z,1.50
2023-05-25T15:03:09.440Z,1.48
2023-05-25T15:05:37.787Z,1.48
2023-05-25T15:08:06.122Z,2.83
2023-05-25T15:10:34.416Z,2.03
2023-05-25T15:13:02.749Z,4.10
2023-05-25T15:15:31.006Z,2.15
2023-05-25T15:17:59.292Z,1.95
2023-05-25T15:20:28.020Z,2.10
2023-05-25T15:22:56.391Z,1.42
2023-05-25T15:25:35.163Z,2.13
2023-05-25T15:28:04.685Z,2.90
2023-05-25T15:30:35.125Z,2.30
2023-05-25T15:33:05.345Z,3.38
2023-05-25T15:35:33.649Z,2.22
2023-05-25T15:38:02.269Z,2.13
2023-05-25T15:40:30.549Z,3.00
2023-05-25T15:42:58.836Z,1.48
2023-05-25T15:45:27.540Z,2.80
2023-05-25T15:47:55.984Z,2.53
2023-05-25T15:50:24.560Z,3.22
2023-05-25T15:52:52.946Z,2.25
2023-05-25T15:55:21.577Z,2.70
2023-05-25T15:57:49.824Z,2.65
2023-05-25T16:00:18.722Z,1.85
2023-05-25T16:02:47.044Z,4.18
2023-05-25T16:05:15.500Z,4.90
2023-05-25T16:07:43.766Z,3.03
2023-05-25T16:10:12.108Z,2.58
2023-05-25T16:12:40.416Z,3.72
2023-05-25T16:15:09.081Z,2.50
2023-05-25T16:17:37.344Z,2.00
2023-05-25T16:20:07.536Z,2.28
2023-05-25T16:22:35.777Z,2.38
2023-05-25T16:25:04.033Z,2.17
2023-05-25T16:27:32.331Z,3.72
2023-05-25T16:30:00.617Z,5.82
2023-05-25T16:32:30.379Z,2.90
2023-05-25T16:34:58.636Z,3.05
2023-05-25T16:37:27.141Z,3.47
2023-05-25T16:39:55.489Z,3.13
2023-05-25T16:42:26.116Z,2.92
2023-05-25T16:44:54.588Z,2.95
2023-05-25T16:47:23.460Z,2.47
2023-05-25T16:49:51.758Z,2.45
2023-05-25T16:52:19.994Z,4.20
2023-05-25T16:54:48.269Z,3.20
2023-05-25T16:57:16.503Z,3.08
2023-05-25T16:59:44.733Z,2.55
2023-05-25T17:02:13.049Z,4.55
2023-05-25T17:04:41.319Z,2.25
2023-05-25T17:07:09.785Z,2.30
2023-05-25T17:09:38.034Z,3.92
2023-05-25T17:12:07.293Z,3.45
2023-05-25T17:14:35.565Z,3.90
2023-05-25T17:17:03.897Z,4.63
2023-05-25T17:19:32.467Z,2.95
2023-05-25T17:22:00.722Z,1.60
2023-05-25T17:24:28.970Z,5.72
2023-05-25T17:26:57.317Z,2.53
2023-05-25T17:29:25.918Z,2.40
2023-05-25T17:31:54.792Z,3.00
2023-05-25T17:34:23.152Z,2.20
2023-05-25T17:36:51.513Z,2.65
2023-05-25T17:39:19.829Z,4.10
2023-05-25T17:41:48.560Z,2.88
2023-05-25T17:44:18.178Z,3.53
2023-05-25T17:46:46.704Z,2.00
2023-05-25T17:49:14.986Z,1.50
2023-05-25T17:51:43.285Z,2.03
2023-05-25T17:54:16.137Z,2.80
2023-05-25T17:56:44.410Z,4.68
2023-05-25T17:59:12.878Z,2.58
2023-05-25T18:01:41.687Z,2.42
2023-05-25T18:04:10.202Z,2.80
2023-05-25T18:06:38.553Z,3.20
2023-05-25T18:09:06.789Z,2.80
2023-05-25T18:11:37.330Z,1.63
2023-05-25T18:14:06.072Z,2.75
2023-05-25T18:16:34.588Z,2.95
2023-05-25T18:19:03.465Z,3.55
2023-05-25T18:21:33.397Z,2.70
2023-05-25T18:24:01.800Z,2.97
2023-05-25T18:26:30.351Z,2.70
2023-05-25T18:28:58.624Z,2.85
2023-05-25T18:31:27.985Z,4.20
2023-05-25T18:33:56.337Z,3.08
2023-05-25T18:36:24.642Z,1.77
2023-05-25T18:38:52.926Z,2.65
2023-05-25T18:41:25.373Z,6.00
2023-05-25T18:43:53.732Z,2.15
2023-05-25T18:46:22.449Z,3.40
2023-05-25T18:48:50.756Z,1.80
2023-05-25T18:51:23.176Z,2.58
2023-05-25T18:53:51.467Z,2.40
2023-05-25T18:56:19.730Z,1.77
2023-05-25T18:58:48.936Z,1.92
2023-05-25T19:01:19.314Z,2.60
2023-05-25T19:03:47.711Z,2.72
2023-05-25T19:06:16.011Z,1.50
2023-05-25T19:08:44.465Z,2.10
2023-05-25T19:11:12.740Z,2.47
2023-05-25T19:13:40.966Z,1.95
2023-05-25T19:16:09.513Z,3.00
2023-05-25T19:18:37.815Z,2.63
2023-05-25T19:21:06.880Z,3.25
2023-05-25T19:23:36.024Z,2.15
2023-05-25T19:26:04.297Z,1.70
2023-05-25T19:28:32.514Z,1.17
2023-05-25T19:31:01.750Z,2.42
2023-05-25T19:33:29.994Z,2.00
2023-05-25T19:35:58.443Z,2.47
2023-05-25T19:38:31.495Z,3.35
2023-05-25T19:41:09.091Z,3.42
2023-05-25T19:43:38.192Z,3.10
2023-05-25T19:46:07.050Z,1.58
2023-05-25T19:48:35.372Z,1.42
2023-05-25T19:51:03.636Z,2.65
2023-05-25T19:53:32.291Z,3.42
2023-05-25T19:56:00.553Z,3.38
2023-05-25T19:58:28.808Z,2.88
2023-05-25T20:00:57.254Z,3.42
2023-05-25T20:03:25.970Z,3.58
2023-05-25T20:05:54.348Z,2.63
2023-05-25T20:08:25.234Z,2.95
2023-05-25T20:10:54.764Z,3.50
2023-05-25T20:13:22.993Z,3.47
2023-05-25T20:15:51.352Z,2.55
2023-05-25T20:18:19.687Z,2.85
2023-05-25T20:20:48.133Z,2.47
2023-05-25T20:23:16.519Z,2.17
2023-05-25T20:25:44.977Z,1.58
2023-05-25T20:28:13.579Z,2.28
2023-05-25T20:30:41.851Z,2.60
2023-05-25T20:33:10.133Z,2.53
2023-05-25T20:35:39.130Z,2.22
2023-05-25T20:38:07.520Z,2.00
2023-05-25T20:40:35.781Z,2.83
2023-05-25T20:43:04.030Z,2.92
2023-05-25T20:45:32.552Z,1.95
2023-05-25T20:48:07.525Z,2.03
2023-05-25T20:50:35.904Z,3.00
2023-05-25T20:53:04.158Z,2.90
2023-05-25T20:55:32.453Z,2.38
2023-05-25T20:58:01.836Z,1.83
2023-05-25T21:00:30.141Z,2.63
2023-05-25T21:02:58.497Z,2.42
2023-05-25T21:05:27.519Z,2.83
2023-05-25T21:07:55.766Z,2.38
2023-05-25T21:10:24.018Z,3.25
2023-05-25T21:12:52.475Z,4.68
2023-05-25T21:15:20.770Z,2.72
2023-05-25T21:17:49.135Z,2.83
2023-05-25T21:20:17.579Z,3.92
2023-05-25T21:22:45.836Z,2.90
2023-05-25T21:25:14.062Z,2.60
2023-05-25T21:27:42.285Z,2.13
2023-05-25T21:30:11.046Z,4.68
2023-05-25T21:32:39.585Z,2.53
2023-05-25T21:35:08.124Z,2.88
2023-05-25T21:37:36.377Z,1.80
2023-05-25T21:40:04.688Z,2.40
2023-05-25T21:42:32.895Z,1.70
2023-05-25T21:45:01.211Z,4.22
2023-05-25T21:47:29.594Z,3.38
2023-05-25T21:49:58.168Z,2.75
2023-05-25T21:52:26.468Z,3.42
2023-05-25T21:54:54.686Z,1.75
2023-05-25T21:57:22.920Z,3.38
2023-05-25T21:59:51.517Z,2.83
2023-05-25T22:02:19.823Z,1.48
2023-05-25T22:04:48.148Z,1.98
2023-05-25T22:07:16.642Z,2.10
2023-05-25T22:09:44.940Z,2.20
2023-05-25T22:12:13.728Z,2.85
2023-05-25T22:14:42.021Z,2.63
2023-05-25T22:17:10.510Z,2.53
2023-05-25T22:19:38.855Z,2.42
2023-05-25T22:22:07.670Z,2.15
2023-05-25T22:24:36.062Z,2.65
2023-05-25T22:27:04.370Z,1.92
2023-05-25T22:29:32.646Z,1.85
2023-05-25T22:32:00.941Z,2.33
2023-05-25T22:34:29.267Z,2.78
2023-05-25T22:36:57.601Z,3.35
2023-05-25T22:39:26.077Z,2.47
2023-05-25T22:41:54.342Z,2.78
2023-05-25T22:44:22.640Z,1.98
2023-05-25T22:46:50.982Z,4.07
2023-05-25T22:49:19.324Z,2.65
2023-05-25T22:51:47.591Z,3.70
2023-05-25T22:54:15.920Z,2.22
2023-05-25T22:56:44.739Z,1.83
2023-05-25T22:59:14.263Z,1.55
2023-05-25T23:01:42.559Z,2.47
2023-05-25T23:04:10.959Z,3.30
2023-05-25T23:06:39.405Z,3.47
2023-05-25T23:09:07.656Z,4.28
2023-05-25T23:11:35.938Z,3.45
2023-05-25T23:14:04.329Z,1.98
2023-05-25T23:16:32.610Z,2.83
2023-05-25T23:19:01.037Z,2.35
2023-05-25T23:21:29.445Z,4.28
2023-05-25T23:23:57.702Z,3.25
2023-05-25T23:26:26.101Z,4.25
2023-05-25T23:28:54.399Z,5.65
2023-05-25T23:31:22.721Z,3.63
2023-05-25T23:33:50.986Z,2.53
2023-05-25T23:36:19.416Z,2.70
2023-05-25T23:38:47.759Z,2.85
2023-05-25T23:41:17.358Z,3.65
2023-05-25T23:43:46.390Z,3.10
2023-05-25T23:46:18.213Z,3.70
2023-05-25T23:48:47.137Z,5.00
2023-05-25T23:51:15.467Z,3.55
2023-05-25T23:53:44.092Z,2.92
2023-05-25T23:56:12.388Z,2.17
2023-05-25T23:58:40.769Z,4.30
